Time;durP1;ratioP1;P1;durP2;ratioP2;P2;SDS_P1;SDS_P2;PMS_P1;PMS_P2;Temp;Humidity;BMP_temperature;BMP_pressure;BME280_temperature;BME280_humidity;BME280_pressure;Samples;Min_cycle;Max_cycle;Signal;HPM_P1;HPM_P2
2024/01/05 00:01:44;;;;;;;;;;;;;;;;;;5053468;28;19924;-68
2024/01/05 00:04:12;;;;;;;;;;;;;;;;;;5051794;28;19932;-68
2024/01/05 00:06:39;;;;;;;;;;;;;;;;;;5052835;28;19973;-68
2024/01/05 00:09:06;;;;;;;;;;;;;;;;;;5049465;28;19982;-68
2024/01/05 00:11:33;;;;;;;;;;;;;;;;;;5049259;28;19951;-68
2024/01/05 00:14:00;;;;;;;;;;;;;;;;;;5051970;28;19925;-69
2024/01/05 00:16:27;;;;;;;;;;;;;;;;;;5043885;28;20407;-68
2024/01/05 00:18:54;;;;;;;;;;;;;;;;;;5040364;28;20296;-68
2024/01/05 00:21:21;;;;;;;;;;;;;;;;;;5052280;28;19924;-67
2024/01/05 00:23:48;;;;;;;;;;;;;;;;;;5050812;28;19937;-68
2024/01/05 00:26:15;;;;;;;;;;;;;;;;;;5051887;28;19928;-67
2024/01/05 00:28:42;;;;;;;;;;;;;;;;;;5050441;28;20026;-68
2024/01/05 00:31:10;;;;;;;;;;;;;;;;;;5048911;28;20338;-68
2024/01/05 00:33:37;;;;;;;;;;;;;;;;;;5049788;28;19979;-68
2024/01/05 00:36:04;;;;;;;;;;;;;;;;;;5051452;28;19935;-68
2024/01/05 00:38:31;;;;;;;;;;;;;;;;;;5051347;28;19929;-68
2024/01/05 00:40:58;;;;;;;;;;;;;;;;;;5051780;28;19925;-68
2024/01/05 00:43:25;;;;;;;;;;;;;;;;;;5051549;28;19944;-68
2024/01/05 00:45:52;;;;;;;;;;;;;;;;;;5049252;28;20366;-68
2024/01/05 00:48:20;;;;;;;;;;;;;;;;;;5054085;28;19924;-68
2024/01/05 00:50:47;;;;;;;;;;;;;;;;;;5049213;28;19925;-68
2024/01/05 00:53:14;;;;;;;;;;;;;;;;;;5050631;28;20007;-68
2024/01/05 00:55:41;;;;;;;;;;;;;;;;;;5051769;28;20341;-69
2024/01/05 00:58:08;;;;;;;;;;;;;;;;;;5050474;28;20218;-68
2024/01/05 01:00:35;;;;;;;;;;;;;;;;;;5051566;28;20445;-69
2024/01/05 01:03:02;;;;;;;;;;;;;;;;;;5050023;28;20006;-68
2024/01/05 01:05:29;;;;;;;;;;;;;;;;;;5052250;28;20011;-68
2024/01/05 01:07:56;;;;;;;;;;;;;;;;;;5039805;28;20342;-69
2024/01/05 01:10:23;;;;;;;;;;;;;;;;;;5038096;28;19925;-69
2024/01/05 01:12:50;;;;;;;;;;;;;;;;;;5049683;28;19925;-69
2024/01/05 01:15:17;;;;;;;;;;;;;;;;;;5051525;28;19924;-69
2024/01/05 01:17:45;;;;;;;;;;;;;;;;;;5050695;28;19928;-69
2024/01/05 01:20:12;;;;;;;;;;;;;;;;;;5050690;28;19928;-69
2024/01/05 01:22:39;;;;;;;;;;;;;;;;;;5050375;28;20392;-69
2024/01/05 01:25:06;;;;;;;;;;;;;;;;;;5048559;28;19924;-69
2024/01/05 01:27:34;;;;;;;;;;;;;;;;;;5051775;28;20030;-69
2024/01/05 01:30:01;;;;;;;;;;;;;;;;;;5050891;28;20277;-69
2024/01/05 01:32:28;;;;;;;;;;;;;;;;;;5052090;28;19979;-69
2024/01/05 01:34:55;;;;;;;;;;;;;;;;;;5050333;28;19978;-69
2024/01/05 01:37:22;;;;;;;;;;;;;;;;;;5051289;28;19925;-69
2024/01/05 01:39:50;;;;;;;;;;;;;;;;;;5048434;28;19925;-68
2024/01/05 01:42:17;;;;;;;;;;;;;;;;;;5040531;28;19925;-68
2024/01/05 01:44:44;;;;;;;;;;;;;;;;;;5049757;28;19979;-68
2024/01/05 01:47:11;;;;;;;;;;;;;;;;;;5051367;28;20025;-68
2024/01/05 01:49:38;;;;;;;;;;;;;;;;;;5049048;28;20027;-68
2024/01/05 01:52:06;;;;;;;;;;;;;;;;;;5051163;28;19924;-68
2024/01/05 01:54:33;;;;;;;;;;;;;;;;;;5050760;28;19933;-68
2024/01/05 01:57:01;;;;;;;;;;;;;;;;;;5050744;28;20433;-68
2024/01/05 01:59:28;;;;;;;;;;;;;;;;;;5048566;28;19980;-68
2024/01/05 02:01:55;;;;;;;;;;;;;;;;;;5050649;28;19924;-68
2024/01/05 02:04:21;;;;;;;;;;;;;;;;;;5050349;28;19924;-68
2024/01/05 02:06:48;;;;;;;;;;;;;;;;;;5051059;28;20002;-68
2024/01/05 02:09:16;;;;;;;;;;;;;;;;;;5050409;28;19925;-68
2024/01/05 02:11:43;;;;;;;;;;;;;;;;;;5050593;28;19925;-68
2024/01/05 02:14:10;;;;;;;;;;;;;;;;;;5047539;28;20469;-68
2024/01/05 02:16:37;;;;;;;;;;;;;;;;;;5036292;28;20295;-68
2024/01/05 02:19:04;;;;;;;;;;;;;;;;;;5048178;28;19932;-68
2024/01/05 02:21:32;;;;;;;;;;;;;;;;;;5047713;28;19928;-68
2024/01/05 02:23:59;;;;;;;;;;;;;;;;;;5050801;28;19925;-68
2024/01/05 02:26:27;;;;;;;;;;;;;;;;;;5046575;28;20026;-68
2024/01/05 02:28:54;;;;;;;;;;;;;;;;;;5050040;28;20292;-68
2024/01/05 02:31:21;;;;;;;;;;;;;;;;;;5048006;28;19929;-68
2024/01/05 02:33:48;;;;;;;;;;;;;;;;;;5048764;28;20354;-68
2024/01/05 02:36:15;;;;;;;;;;;;;;;;;;5049538;28;20001;-68
2024/01/05 02:38:42;;;;;;;;;;;;;;;;;;5049894;28;19990;-68
2024/01/05 02:41:09;;;;;;;;;;;;;;;;;;5052224;28;19925;-68
2024/01/05 02:43:36;;;;;;;;;;;;;;;;;;5051431;28;19929;-68
2024/01/05 02:46:03;;;;;;;;;;;;;;;;;;5052505;28;19924;-68
2024/01/05 02:48:30;;;;;;;;;;;;;;;;;;5052790;28;19925;-68
2024/01/05 02:50:57;;;;;;;;;;;;;;;;;;5049157;28;19925;-68
2024/01/05 02:53:24;;;;;;;;;;;;;;;;;;5053732;28;20387;-68
2024/01/05 02:55:51;;;;;;;;;;;;;;;;;;5053469;28;19933;-68
2024/01/05 02:58:18;;;;;;;;;;;;;;;;;;5053754;28;19933;-68
2024/01/05 03:00:45;;;;;;;;;;;;;;;;;;5053503;28;19925;-68
2024/01/05 03:03:12;;;;;;;;;;;;;;;;;;5052812;28;20346;-68
2024/01/05 03:05:40;;;;;;;;;;;;;;;;;;5052537;28;20346;-68
2024/01/05 03:08:07;;;;;;;;;;;;;;;;;;5053621;28;19925;-68
2024/01/05 03:10:34;;;;;;;;;;;;;;;;;;5053044;28;19947;-68
2024/01/05 03:13:01;;;;;;;;;;;;;;;;;;5053457;28;19924;-68
2024/01/05 03:15:28;;;;;;;;;;;;;;;;;;5052220;28;20335;-68
2024/01/05 03:17:55;;;;;;;;;;;;;;;;;;5052844;28;20205;-68
2024/01/05 03:20:22;;;;;;;;;;;;;;;;;;5041731;28;19929;-68
2024/01/05 03:22:49;;;;;;;;;;;;;;;;;;5049596;28;19940;-68
2024/01/05 03:25:16;;;;;;;;;;;;;;;;;;5053604;28;19925;-68
2024/01/05 03:27:44;;;;;;;;;;;;;;;;;;5051906;28;20023;-69
2024/01/05 03:30:11;;;;;;;;;;;;;;;;;;5051204;28;20364;-69
2024/01/05 03:32:38;;;;;;;;;;;;;;;;;;5052969;28;19924;-68
2024/01/05 03:35:05;;;;;;;;;;;;;;;;;;5051561;28;19924;-68
2024/01/05 03:37:32;;;;;;;;;;;;;;;;;;5052984;28;19929;-68
2024/01/05 03:39:59;;;;;;;;;;;;;;;;;;5042754;28;19925;-68
2024/01/05 03:42:26;;;;;;;;;;;;;;;;;;5052627;28;20304;-68
2024/01/05 03:44:53;;;;;;;;;;;;;;;;;;5052779;28;19982;-68
2024/01/05 03:47:20;;;;;;;;;;;;;;;;;;5052469;28;19987;-68
2024/01/05 03:49:47;;;;;;;;;;;;;;;;;;5050750;28;19924;-68
2024/01/05 03:52:15;;;;;;;;;;;;;;;;;;5050682;28;19925;-69
2024/01/05 03:54:42;;;;;;;;;;;;;;;;;;5038171;28;19929;-68
2024/01/05 03:57:09;;;;;;;;;;;;;;;;;;5047512;28;19925;-69
2024/01/05 03:59:36;;;;;;;;;;;;;;;;;;5040311;28;19925;-67
2024/01/05 04:02:03;;;;;;;;;;;;;;;;;;5050733;28;19956;-67
2024/01/05 04:04:30;;;;;;;;;;;;;;;;;;5051048;28;20031;-67
2024/01/05 04:06:57;;;;;;;;;;;;;;;;;;5052446;28;20403;-68
2024/01/05 04:09:24;;;;;;;;;;;;;;;;;;5051868;28;19931;-68
2024/01/05 04:11:51;;;;;;;;;;;;;;;;;;5051157;28;20493;-68
2024/01/05 04:14:18;;;;;;;;;;;;;;;;;;5051138;28;19925;-68
2024/01/05 04:16:45;;;;;;;;;;;;;;;;;;5052848;28;19928;-68
2024/01/05 04:19:13;;;;;;;;;;;;;;;;;;5052680;28;20330;-69
2024/01/05 04:21:40;;;;;;;;;;;;;;;;;;5051849;28;20299;-68
2024/01/05 04:24:07;;;;;;;;;;;;;;;;;;5051072;28;19924;-70
2024/01/05 04:26:34;;;;;;;;;;;;;;;;;;5052509;28;19970;-69
2024/01/05 04:29:01;;;;;;;;;;;;;;;;;;5052043;28;19924;-69
2024/01/05 04:31:28;;;;;;;;;;;;;;;;;;5048452;28;19924;-69
2024/01/05 04:33:55;;;;;;;;;;;;;;;;;;5051917;28;19970;-68
2024/01/05 04:36:22;;;;;;;;;;;;;;;;;;5050240;28;19928;-68
2024/01/05 04:38:49;;;;;;;;;;;;;;;;;;5051330;28;20303;-68
2024/01/05 04:41:16;;;;;;;;;;;;;;;;;;5052136;28;20329;-68
2024/01/05 04:43:44;;;;;;;;;;;;;;;;;;5051472;28;20305;-69
2024/01/05 04:46:11;;;;;;;;;;;;;;;;;;5051599;28;19925;-68
2024/01/05 04:48:38;;;;;;;;;;;;;;;;;;5043007;28;19987;-69
2024/01/05 04:51:05;;;;;;;;;;;;;;;;;;5041642;28;19928;-69
2024/01/05 04:53:32;;;;;;;;;;;;;;;;;;5052365;28;19935;-68
2024/01/05 04:55:59;;;;;;;;;;;;;;;;;;5051825;28;19994;-68
2024/01/05 04:58:26;;;;;;;;;;;;;;;;;;5051696;28;19924;-69
2024/01/05 05:00:54;;;;;;;;;;;;;;;;;;5050212;28;20005;-68
2024/01/05 05:03:21;;;;;;;;;;;;;;;;;;5051108;28;20350;-68
2024/01/05 05:05:48;;;;;;;;;;;;;;;;;;5046976;28;19928;-68
2024/01/05 05:08:15;;;;;;;;;;;;;;;;;;5050718;28;20269;-68
2024/01/05 05:10:42;;;;;;;;;;;;;;;;;;5040465;28;19932;-69
2024/01/05 05:13:09;;;;;;;;;;;;;;;;;;5050049;28;20358;-68
2024/01/05 05:15:36;;;;;;;;;;;;;;;;;;5037161;28;19970;-69
2024/01/05 05:18:03;;;;;;;;;;;;;;;;;;5045009;28;19928;-69
2024/01/05 05:20:30;;;;;;;;;;;;;;;;;;5049972;28;19940;-68
2024/01/05 05:22:58;;;;;;;;;;;;;;;;;;5047913;28;19948;-69
2024/01/05 05:25:25;;;;;;;;;;;;;;;;;;5049799;28;19979;-68
2024/01/05 05:27:52;;;;;;;;;;;;;;;;;;5031943;28;19972;-69
2024/01/05 05:30:19;;;;;;;;;;;;;;;;;;5042956;28;19971;-69
2024/01/05 05:32:46;;;;;;;;;;;;;;;;;;5051820;28;19938;-69
2024/01/05 05:35:13;;;;;;;;;;;;;;;;;;5047665;28;19975;-69
2024/01/05 05:37:40;;;;;;;;;;;;;;;;;;5050981;28;19925;-69
2024/01/05 05:40:08;;;;;;;;;;;;;;;;;;5050208;28;20399;-69
2024/01/05 05:42:36;;;;;;;;;;;;;;;;;;5049542;28;19925;-69
2024/01/05 05:45:03;;;;;;;;;;;;;;;;;;5051624;28;19929;-69
2024/01/05 05:47:30;;;;;;;;;;;;;;;;;;5047897;28;19932;-66
2024/01/05 05:49:57;;;;;;;;;;;;;;;;;;5049839;28;19979;-66
2024/01/05 05:52:25;;;;;;;;;;;;;;;;;;5049592;28;19929;-66
2024/01/05 05:54:52;;;;;;;;;;;;;;;;;;5051521;28;19931;-66
2024/01/05 05:57:19;;;;;;;;;;;;;;;;;;5048795;28;20012;-65
2024/01/05 05:59:46;;;;;;;;;;;;;;;;;;5049461;28;19932;-68
2024/01/05 06:02:13;;;;;;;;;;;;;;;;;;5048185;28;19932;-68
2024/01/05 06:04:40;;;;;;;;;;;;;;;;;;5049934;28;20384;-69
2024/01/05 06:07:07;;;;;;;;;;;;;;;;;;5063088;28;19925;-68
2024/01/05 06:09:34;;;;;;;;;;;;;;;;;;5051311;28;19965;-69
2024/01/05 06:12:01;;;;;;;;;;;;;;;;;;5049950;28;19932;-68
2024/01/05 06:14:29;;;;;;;;;;;;;;;;;;5050870;28;20020;-69
2024/01/05 06:16:56;;;;;;;;;;;;;;;;;;5044151;28;19925;-70
2024/01/05 06:19:23;;;;;;;;;;;;;;;;;;5050890;28;19929;-69
2024/01/05 06:21:50;;;;;;;;;;;;;;;;;;5052988;28;19924;-69
2024/01/05 06:24:17;;;;;;;;;;;;;;;;;;5053510;28;19924;-69
2024/01/05 06:26:44;;;;;;;;;;;;;;;;;;5051575;28;19978;-69
2024/01/05 06:29:11;;;;;;;;;;;;;;;;;;5054510;28;20305;-70
2024/01/05 06:31:38;;;;;;;;;;;;;;;;;;5052390;28;19955;-70
2024/01/05 06:34:05;;;;;;;;;;;;;;;;;;5054298;28;20042;-69
2024/01/05 06:36:32;;;;;;;;;;;;;;;;;;5054028;28;19925;-68
2024/01/05 06:38:59;;;;;;;;;;;;;;;;;;5052135;28;19925;-68
2024/01/05 06:41:27;;;;;;;;;;;;;;;;;;5052890;28;20644;-68
2024/01/05 06:43:54;;;;;;;;;;;;;;;;;;5054953;28;19924;-68
2024/01/05 06:46:21;;;;;;;;;;;;;;;;;;5054279;28;19925;-69
2024/01/05 06:48:48;;;;;;;;;;;;;;;;;;5050419;28;19933;-68
2024/01/05 06:51:15;;;;;;;;;;;;;;;;;;5053455;28;20032;-69
2024/01/05 06:53:42;;;;;;;;;;;;;;;;;;5054932;28;19925;-69
2024/01/05 06:56:10;;;;;;;;;;;;;;;;;;5052200;28;19936;-69
2024/01/05 06:58:38;;;;;;;;;;;;;;;;;;5054587;28;19925;-70
2024/01/05 07:01:05;;;;;;;;;;;;;;;;;;5052194;28;19942;-69
2024/01/05 07:03:32;;;;;;;;;;;;;;;;;;5053583;28;19932;-68
2024/01/05 07:05:59;;;;;;;;;;;;;;;;;;5041117;28;19924;-69
2024/01/05 07:08:26;;;;;;;;;;;;;;;;;;5052060;28;20004;-70
2024/01/05 07:10:53;;;;;;;;;;;;;;;;;;5053897;28;19932;-69
2024/01/05 07:13:20;;;;;;;;;;;;;;;;;;5053352;28;20332;-69
2024/01/05 07:15:47;;;;;;;;;;;;;;;;;;5041619;28;20285;-69
2024/01/05 07:18:14;;;;;;;;;;;;;;;;;;5053760;28;19932;-69
2024/01/05 07:20:41;;;;;;;;;;;;;;;;;;5040790;28;19990;-69
2024/01/05 07:23:08;;;;;;;;;;;;;;;;;;5052277;28;19928;-69
2024/01/05 07:25:35;;;;;;;;;;;;;;;;;;5053865;28;19925;-68
2024/01/05 07:28:03;;;;;;;;;;;;;;;;;;5054085;28;19932;-69
2024/01/05 07:30:30;;;;;;;;;;;;;;;;;;5053976;28;19924;-69
2024/01/05 07:32:57;;;;;;;;;;;;;;;;;;5053302;28;19983;-69
2024/01/05 07:35:24;;;;;;;;;;;;;;;;;;5054160;28;19925;-69
2024/01/05 07:37:53;;;;;;;;;;;;;;;;;;5050246;28;19933;-68
2024/01/05 07:40:20;;;;;;;;;;;;;;;;;;5034255;28;19932;-68
2024/01/05 07:42:47;;;;;;;;;;;;;;;;;;5041994;28;19929;-68
2024/01/05 07:45:14;;;;;;;;;;;;;;;;;;5064057;28;19925;-69
2024/01/05 07:47:41;;;;;;;;;;;;;;;;;;5053379;28;19932;-69
2024/01/05 07:50:08;;;;;;;;;;;;;;;;;;5052129;28;19932;-70
2024/01/05 07:52:36;;;;;;;;;;;;;;;;;;5050867;28;19925;-70
2024/01/05 07:55:02;;;;;;;;;;;;;;;;;;5052166;28;20011;-73
2024/01/05 07:57:30;;;;;;;;;;;;;;;;;;5053087;28;19925;-70
2024/01/05 07:59:57;;;;;;;;;;;;;;;;;;5039203;28;19925;-71
2024/01/05 08:02:24;;;;;;;;;;;;;;;;;;5052871;28;19928;-70
2024/01/05 08:04:51;;;;;;;;;;;;;;;;;;5036244;28;19925;-70
2024/01/05 08:07:18;;;;;;;;;;;;;;;;;;5050703;28;19924;-70
2024/01/05 08:09:46;;;;;;;;;;;;;;;;;;5045025;28;20012;-70
2024/01/05 08:12:13;;;;;;;;;;;;;;;;;;5046687;28;19932;-71
2024/01/05 08:14:40;;;;;;;;;;;;;;;;;;5033429;28;19925;-69
2024/01/05 08:17:07;;;;;;;;;;;;;;;;;;5047897;28;19974;-70
2024/01/05 08:19:34;;;;;;;;;;;;;;;;;;5032096;28;19936;-69
2024/01/05 08:22:01;;;;;;;;;;;;;;;;;;5035172;28;19933;-71
2024/01/05 08:24:28;;;;;;;;;;;;;;;;;;5049277;28;19925;-69
2024/01/05 08:26:55;;;;;;;;;;;;;;;;;;5044009;28;19925;-69
2024/01/05 08:29:22;;;;;;;;;;;;;;;;;;5036919;28;19932;-70
2024/01/05 08:31:49;;;;;;;;;;;;;;;;;;5046095;28;19928;-69
2024/01/05 08:34:16;;;;;;;;;;;;;;;;;;5050474;28;19924;-70
2024/01/05 08:36:44;;;;;;;;;;;;;;;;;;5049007;28;19929;-70
2024/01/05 08:39:11;;;;;;;;;;;;;;;;;;5042697;28;19929;-71
2024/01/05 08:41:38;;;;;;;;;;;;;;;;;;5051763;28;19932;-71
2024/01/05 08:44:05;;;;;;;;;;;;;;;;;;5051629;28;19928;-71
2024/01/05 08:46:32;;;;;;;;;;;;;;;;;;5045318;28;19925;-71
2024/01/05 08:48:59;;;;;;;;;;;;;;;;;;5051118;28;19968;-71
2024/01/05 08:51:26;;;;;;;;;;;;;;;;;;5047046;28;19924;-70
2024/01/05 08:53:53;;;;;;;;;;;;;;;;;;5052179;28;19928;-69
2024/01/05 08:56:21;;;;;;;;;;;;;;;;;;5051852;28;19925;-70
2024/01/05 08:58:48;;;;;;;;;;;;;;;;;;5052056;28;20276;-70
2024/01/05 09:01:15;;;;;;;;;;;;;;;;;;5059654;28;20391;-70
2024/01/05 09:03:42;;;;;;;;;;;;;;;;;;5049556;28;19979;-70
2024/01/05 09:06:09;;;;;;;;;;;;;;;;;;5049564;28;19925;-72
2024/01/05 09:08:36;;;;;;;;;;;;;;;;;;5058590;28;19925;-68
2024/01/05 09:11:04;;;;;;;;;;;;;;;;;;5046682;28;19928;-71
2024/01/05 09:13:31;;;;;;;;;;;;;;;;;;5049993;28;19929;-71
2024/01/05 09:15:58;;;;;;;;;;;;;;;;;;5045340;28;19928;-71
2024/01/05 09:18:27;;;;;;;;;;;;;;;;;;5046786;28;20445;-71
2024/01/05 09:20:55;;;;;;;;;;;;;;;;;;5045105;28;19924;-71
2024/01/05 09:23:22;;;;;;;;;;;;;;;;;;5040753;28;19932;-72
2024/01/05 09:25:49;;;;;;;;;;;;;;;;;;5047793;28;19957;-71
2024/01/05 09:28:16;;;;;;;;;;;;;;;;;;5047296;28;19925;-72
2024/01/05 09:30:43;;;;;;;;;;;;;;;;;;5047729;28;19925;-71
2024/01/05 09:33:10;;;;;;;;;;;;;;;;;;5044738;28;19986;-72
2024/01/05 09:35:37;;;;;;;;;;;;;;;;;;5045489;28;19925;-71
2024/01/05 09:38:04;;;;;;;;;;;;;;;;;;5044645;28;20562;-71
2024/01/05 09:40:31;;;;;;;;;;;;;;;;;;5046401;28;20420;-72
2024/01/05 09:43:02;;;;;;;;;;;;;;;;;;5048375;28;19932;-71
2024/01/05 09:45:29;;;;;;;;;;;;;;;;;;5044300;28;19956;-72
2024/01/05 09:47:57;;;;;;;;;;;;;;;;;;5039533;28;19925;-71
2024/01/05 09:50:24;;;;;;;;;;;;;;;;;;5041294;28;20303;-71
2024/01/05 09:52:51;;;;;;;;;;;;;;;;;;5048879;28;20395;-71
2024/01/05 09:55:19;;;;;;;;;;;;;;;;;;5040406;28;19931;-72
2024/01/05 09:57:46;;;;;;;;;;;;;;;;;;5043801;28;19986;-70
2024/01/05 10:00:13;;;;;;;;;;;;;;;;;;5040175;28;19925;-72
2024/01/05 10:02:40;;;;;;;;;;;;;;;;;;5046719;28;20015;-71
2024/01/05 10:05:08;;;;;;;;;;;;;;;;;;5047891;28;19952;-72
2024/01/05 10:07:35;;;;;;;;;;;;;;;;;;5039013;28;19929;-71
2024/01/05 10:10:02;;;;;;;;;;;;;;;;;;5044589;28;19968;-71
2024/01/05 10:12:29;;;;;;;;;;;;;;;;;;5047730;22;19933;-72
2024/01/05 10:14:56;;;;;;;;;;;;;;;;;;5047555;28;19925;-71
2024/01/05 10:17:23;;;;;;;;;;;;;;;;;;5048601;28;19928;-72
2024/01/05 10:19:51;;;;;;;;;;;;;;;;;;5042751;28;20466;-73
2024/01/05 10:22:21;;;;;;;;;;;;;;;;;;5045385;28;19929;-73
2024/01/05 10:24:48;;;;;;;;;;;;;;;;;;5033661;28;19930;-75
2024/01/05 10:27:15;;;;;;;;;;;;;;;;;;5039739;28;19975;-69
2024/01/05 10:29:43;;;;;;;;;;;;;;;;;;5048567;28;19925;-71
2024/01/05 10:32:10;;;;;;;;;;;;;;;;;;5039273;28;19987;-71
2024/01/05 10:34:37;;;;;;;;;;;;;;;;;;5044641;28;20323;-71
2024/01/05 10:37:04;;;;;;;;;;;;;;;;;;5039669;28;19967;-71
2024/01/05 10:39:32;;;;;;;;;;;;;;;;;;5033451;28;19940;-72
2024/01/05 10:41:59;;;;;;;;;;;;;;;;;;5044941;28;19928;-72
2024/01/05 10:44:26;;;;;;;;;;;;;;;;;;5039748;28;19933;-72
2024/01/05 10:46:53;;;;;;;;;;;;;;;;;;5039178;28;19990;-72
2024/01/05 10:49:21;;;;;;;;;;;;;;;;;;5040506;28;19925;-71
2024/01/05 10:51:48;;;;;;;;;;;;;;;;;;5040715;28;19924;-72
2024/01/05 10:54:15;;;;;;;;;;;;;;;;;;5042579;28;19931;-72
2024/01/05 10:56:42;;;;;;;;;;;;;;;;;;5040274;28;19932;-70
2024/01/05 10:59:10;;;;;;;;;;;;;;;;;;5047865;28;19971;-69
2024/01/05 11:01:37;;;;;;;;;;;;;;;;;;5039321;28;19925;-71
2024/01/05 11:04:04;;;;;;;;;;;;;;;;;;5048828;28;19925;-71
2024/01/05 11:06:32;;;;;;;;;;;;;;;;;;5044819;28;20391;-71
2024/01/05 11:08:59;;;;;;;;;;;;;;;;;;5045274;28;19925;-71
2024/01/05 11:11:26;;;;;;;;;;;;;;;;;;5043893;28;20228;-71
2024/01/05 11:13:53;;;;;;;;;;;;;;;;;;5041370;28;19967;-71
2024/01/05 11:16:20;;;;;;;;;;;;;;;;;;5047350;28;19924;-71
2024/01/05 11:18:46;;;;;;;;;;;;;;;;;;5050599;28;19936;-72
2024/01/05 11:21:14;;;;;;;;;;;;;;;;;;5045555;28;19931;-71
2024/01/05 11:23:42;;;;;;;;;;;;;;;;;;5046505;28;19935;-69
2024/01/05 11:26:09;;;;;;;;;;;;;;;;;;5047862;28;20442;-70
2024/01/05 11:28:36;;;;;;;;;;;;;;;;;;5051804;28;20384;-70
2024/01/05 11:31:03;;;;;;;;;;;;;;;;;;5047724;28;20428;-72
2024/01/05 11:33:30;;;;;;;;;;;;;;;;;;5043927;28;20003;-71
2024/01/05 11:35:57;;;;;;;;;;;;;;;;;;5055464;28;19924;-71
2024/01/05 11:38:23;;;;;;;;;;;;;;;;;;5041606;28;20290;-70
2024/01/05 11:40:50;;;;;;;;;;;;;;;;;;5044493;28;19925;-71
2024/01/05 11:43:17;;;;;;;;;;;;;;;;;;5043000;28;19925;-71
2024/01/05 11:45:44;;;;;;;;;;;;;;;;;;5038918;28;19979;-72
2024/01/05 11:48:12;;;;;;;;;;;;;;;;;;5048001;28;19975;-72
2024/01/05 11:50:39;;;;;;;;;;;;;;;;;;5053273;28;19951;-71
2024/01/05 11:53:05;;;;;;;;;;;;;;;;;;5050368;28;19947;-71
2024/01/05 11:55:39;;;;;;;;;;;;;;;;;;5046344;28;19979;-69
2024/01/05 11:58:07;;;;;;;;;;;;;;;;;;5045558;28;19933;-71
2024/01/05 12:00:35;;;;;;;;;;;;;;;;;;5051504;28;19971;-73
2024/01/05 12:03:02;;;;;;;;;;;;;;;;;;5047426;28;19964;-70
2024/01/05 12:05:29;;;;;;;;;;;;;;;;;;5051015;28;19929;-70
2024/01/05 12:07:56;;;;;;;;;;;;;;;;;;5049875;28;19925;-71
2024/01/05 12:10:23;;;;;;;;;;;;;;;;;;5053465;28;19971;-70
2024/01/05 12:12:50;;;;;;;;;;;;;;;;;;5049452;28;19925;-71
2024/01/05 12:15:17;;;;;;;;;;;;;;;;;;5043660;28;19967;-71
2024/01/05 12:17:45;;;;;;;;;;;;;;;;;;5050000;28;19970;-71
2024/01/05 12:20:12;;;;;;;;;;;;;;;;;;5047166;28;19964;-70
2024/01/05 12:22:39;;;;;;;;;;;;;;;;;;5042655;28;19983;-70
2024/01/05 12:25:06;;;;;;;;;;;;;;;;;;5048684;28;19925;-71
2024/01/05 12:27:33;;;;;;;;;;;;;;;;;;5047106;28;19925;-71
2024/01/05 12:30:01;;;;;;;;;;;;;;;;;;5040520;28;19935;-71
2024/01/05 12:32:29;;;;;;;;;;;;;;;;;;5050565;28;19924;-71
2024/01/05 12:34:57;;;;;;;;;;;;;;;;;;5049176;28;19929;-70
2024/01/05 12:37:24;;;;;;;;;;;;;;;;;;5037849;28;19928;-70
2024/01/05 12:39:50;;;;;;;;;;;;;;;;;;5045116;28;20017;-72
2024/01/05 12:42:17;;;;;;;;;;;;;;;;;;5055992;28;19928;-72
2024/01/05 12:44:44;;;;;;;;;;;;;;;;;;5046959;28;19924;-72
2024/01/05 12:47:11;;;;;;;;;;;;;;;;;;5047906;28;19929;-71
2024/01/05 12:49:38;;;;;;;;;;;;;;;;;;5049268;28;19978;-71
2024/01/05 12:52:06;;;;;;;;;;;;;;;;;;5051462;28;19924;-72
2024/01/05 12:54:33;;;;;;;;;;;;;;;;;;5046566;28;20485;-73
2024/01/05 12:57:00;;;;;;;;;;;;;;;;;;5036493;28;19929;-69
2024/01/05 12:59:27;;;;;;;;;;;;;;;;;;5040361;28;20064;-72
2024/01/05 13:01:54;;;;;;;;;;;;;;;;;;5039629;28;20433;-72
2024/01/05 13:04:21;;;;;;;;;;;;;;;;;;5043617;28;19956;-72
2024/01/05 13:06:48;;;;;;;;;;;;;;;;;;5050495;28;19932;-72
2024/01/05 13:09:15;;;;;;;;;;;;;;;;;;5043247;28;19997;-72
2024/01/05 13:11:42;;;;;;;;;;;;;;;;;;5045374;28;20121;-72
2024/01/05 13:14:09;;;;;;;;;;;;;;;;;;5041637;28;19928;-73
2024/01/05 13:16:36;;;;;;;;;;;;;;;;;;5048438;28;19968;-72
2024/01/05 13:19:07;;;;;;;;;;;;;;;;;;5049847;28;19940;-72
2024/01/05 13:21:35;;;;;;;;;;;;;;;;;;5037925;28;19958;-71
2024/01/05 13:24:02;;;;;;;;;;;;;;;;;;5039485;28;19925;-71
2024/01/05 13:26:30;;;;;;;;;;;;;;;;;;5046344;28;20322;-72
2024/01/05 13:28:57;;;;;;;;;;;;;;;;;;5049120;28;19975;-66
2024/01/05 13:31:24;;;;;;;;;;;;;;;;;;5041646;28;19981;-66
2024/01/05 13:33:51;;;;;;;;;;;;;;;;;;5048442;28;19931;-66
2024/01/05 13:36:18;;;;;;;;;;;;;;;;;;5039839;28;20029;-70
2024/01/05 13:38:45;;;;;;;;;;;;;;;;;;5046780;28;19952;-70
2024/01/05 13:41:13;;;;;;;;;;;;;;;;;;5039687;28;19925;-70
2024/01/05 13:43:40;;;;;;;;;;;;;;;;;;5041215;28;20447;-71
2024/01/05 13:46:07;;;;;;;;;;;;;;;;;;5045674;28;19994;-71
2024/01/05 13:48:34;;;;;;;;;;;;;;;;;;5044536;28;20034;-71
2024/01/05 13:51:02;;;;;;;;;;;;;;;;;;5043870;28;19929;-71
2024/01/05 13:53:29;;;;;;;;;;;;;;;;;;5044069;28;20276;-71
2024/01/05 13:55:57;;;;;;;;;;;;;;;;;;5046180;28;19925;-71
2024/01/05 13:58:24;;;;;;;;;;;;;;;;;;5041055;28;20016;-71
2024/01/05 14:00:53;;;;;;;;;;;;;;;;;;5043629;28;19931;-71
2024/01/05 14:03:21;;;;;;;;;;;;;;;;;;5043906;28;19995;-71
2024/01/05 14:05:48;;;;;;;;;;;;;;;;;;5043253;28;19925;-70
2024/01/05 14:08:18;;;;;;;;;;;;;;;;;;5042836;28;19952;-71
2024/01/05 14:10:45;;;;;;;;;;;;;;;;;;5041949;28;19925;-70
2024/01/05 14:13:12;;;;;;;;;;;;;;;;;;5045125;28;20032;-72
2024/01/05 14:15:39;;;;;;;;;;;;;;;;;;5045878;28;19954;-71
2024/01/05 14:18:07;;;;;;;;;;;;;;;;;;5046120;28;19924;-70
2024/01/05 14:20:34;;;;;;;;;;;;;;;;;;5046350;28;20033;-71
2024/01/05 14:23:02;;;;;;;;;;;;;;;;;;5048481;28;19924;-71
2024/01/05 14:25:33;;;;;;;;;;;;;;;;;;5049788;28;20376;-71
2024/01/05 14:28:00;;;;;;;;;;;;;;;;;;5048220;28;19925;-71
2024/01/05 14:30:27;;;;;;;;;;;;;;;;;;5047908;28;19987;-71
2024/01/05 14:32:54;;;;;;;;;;;;;;;;;;5047340;28;19925;-71
2024/01/05 14:35:21;;;;;;;;;;;;;;;;;;5043774;28;19931;-70
2024/01/05 14:37:48;;;;;;;;;;;;;;;;;;5053312;28;19947;-70
2024/01/05 14:40:17;;;;;;;;;;;;;;;;;;5053122;28;19925;-70
2024/01/05 14:42:44;;;;;;;;;;;;;;;;;;5051151;28;19963;-70
2024/01/05 14:45:12;;;;;;;;;;;;;;;;;;5045804;28;19964;-71
2024/01/05 14:47:39;;;;;;;;;;;;;;;;;;5051555;28;19951;-71
2024/01/05 14:50:07;;;;;;;;;;;;;;;;;;5047904;28;19991;-69
2024/01/05 14:52:34;;;;;;;;;;;;;;;;;;5052921;28;20027;-71
2024/01/05 14:55:01;;;;;;;;;;;;;;;;;;5046617;28;19998;-72
2024/01/05 14:57:28;;;;;;;;;;;;;;;;;;5049215;28;19940;-72
2024/01/05 14:59:55;;;;;;;;;;;;;;;;;;5046736;28;19982;-73
2024/01/05 15:02:22;;;;;;;;;;;;;;;;;;5051579;28;20039;-73
2024/01/05 15:04:49;;;;;;;;;;;;;;;;;;5046378;28;20392;-74
2024/01/05 15:07:16;;;;;;;;;;;;;;;;;;5050006;28;19924;-75
2024/01/05 15:09:44;;;;;;;;;;;;;;;;;;5046346;28;19986;-71
2024/01/05 15:12:11;;;;;;;;;;;;;;;;;;5049527;28;19932;-72
2024/01/05 15:14:38;;;;;;;;;;;;;;;;;;5053434;28;19933;-71
2024/01/05 15:17:05;;;;;;;;;;;;;;;;;;5052517;28;19933;-72
2024/01/05 15:19:32;;;;;;;;;;;;;;;;;;5047622;28;19929;-71
2024/01/05 15:21:59;;;;;;;;;;;;;;;;;;5050252;28;19978;-71
2024/01/05 15:24:26;;;;;;;;;;;;;;;;;;5053385;28;19925;-72
2024/01/05 15:26:53;;;;;;;;;;;;;;;;;;5051386;28;20003;-71
2024/01/05 15:29:21;;;;;;;;;;;;;;;;;;5050681;28;20288;-71
2024/01/05 15:31:49;;;;;;;;;;;;;;;;;;5053683;28;19924;-70
2024/01/05 15:34:16;;;;;;;;;;;;;;;;;;5043517;28;20462;-71
2024/01/05 15:36:44;;;;;;;;;;;;;;;;;;5046319;28;20291;-72
2024/01/05 15:39:11;;;;;;;;;;;;;;;;;;5050668;28;19929;-71
2024/01/05 15:41:38;;;;;;;;;;;;;;;;;;5048280;28;19940;-72
2024/01/05 15:44:05;;;;;;;;;;;;;;;;;;5040740;28;19968;-72
2024/01/05 15:46:33;;;;;;;;;;;;;;;;;;5040269;28;19925;-72
2024/01/05 15:49:00;;;;;;;;;;;;;;;;;;5051222;28;19929;-72
2024/01/05 15:51:29;;;;;;;;;;;;;;;;;;5049752;28;19928;-72
2024/01/05 15:53:56;;;;;;;;;;;;;;;;;;5045649;28;19935;-71
2024/01/05 15:56:23;;;;;;;;;;;;;;;;;;5053292;28;19932;-71
2024/01/05 15:58:50;;;;;;;;;;;;;;;;;;5053670;28;20300;-71
2024/01/05 16:01:17;;;;;;;;;;;;;;;;;;5052187;28;20219;-72
2024/01/05 16:03:45;;;;;;;;;;;;;;;;;;5050980;28;19978;-72
2024/01/05 16:06:12;;;;;;;;;;;;;;;;;;5046334;28;20395;-71
2024/01/05 16:08:39;;;;;;;;;;;;;;;;;;5049228;28;19932;-71
2024/01/05 16:11:06;;;;;;;;;;;;;;;;;;5045057;28;19931;-73
2024/01/05 16:13:33;;;;;;;;;;;;;;;;;;5051424;28;20273;-73
2024/01/05 16:16:00;;;;;;;;;;;;;;;;;;5051799;28;19947;-72
2024/01/05 16:18:27;;;;;;;;;;;;;;;;;;5039378;28;19995;-72
2024/01/05 16:20:54;;;;;;;;;;;;;;;;;;5044708;28;19986;-72
2024/01/05 16:23:21;;;;;;;;;;;;;;;;;;5049396;28;19928;-71
2024/01/05 16:25:48;;;;;;;;;;;;;;;;;;5044074;28;19925;-72
2024/01/05 16:28:15;;;;;;;;;;;;;;;;;;5043444;28;19925;-71
2024/01/05 16:30:43;;;;;;;;;;;;;;;;;;5038424;28;19978;-71
2024/01/05 16:33:10;;;;;;;;;;;;;;;;;;5046215;28;19924;-71
2024/01/05 16:35:37;;;;;;;;;;;;;;;;;;5049782;28;19978;-71
2024/01/05 16:38:04;;;;;;;;;;;;;;;;;;5048573;28;19935;-72
2024/01/05 16:40:31;;;;;;;;;;;;;;;;;;5042513;28;19978;-72
2024/01/05 16:42:58;;;;;;;;;;;;;;;;;;5044077;28;19925;-72
2024/01/05 16:45:25;;;;;;;;;;;;;;;;;;5044341;28;19979;-72